sensor_id;sensor_type;location;lat;lon;timestamp;pressure;altitude;pressure_sealevel;temperature;humidity
35307;BME280;21420;52.196;21.416;2023-07-28T00:01:35;99460.34;;;13.20;55.47
35307;BME280;21420;52.196;21.416;2023-07-28T00:04:02;99462.30;;;13.21;55.58
35307;BME280;21420;52.196;21.416;2023-07-28T00:06:33;99460.80;;;13.20;55.67
35307;BME280;21420;52.196;21.416;2023-07-28T00:09:02;99457.98;;;13.19;55.59
35307;BME280;21420;52.196;21.416;2023-07-28T00:11:29;99453.73;;;13.20;55.52
35307;BME280;21420;52.196;21.416;2023-07-28T00:13:55;99448.88;;;13.20;55.76
35307;BME280;21420;52.196;21.416;2023-07-28T00:16:22;99447.79;;;13.21;55.83
35307;BME280;21420;52.196;21.416;2023-07-28T00:18:49;99452.20;;;13.22;55.74
35307;BME280;21420;52.196;21.416;2023-07-28T00:21:15;99450.80;;;13.24;55.84
35307;BME280;21420;52.196;21.416;2023-07-28T00:23:42;99450.13;;;13.27;55.99
35307;BME280;21420;52.196;21.416;2023-07-28T00:26:09;99449.78;;;13.29;56.05
35307;BME280;21420;52.196;21.416;2023-07-28T00:28:35;99449.34;;;13.31;56.10
35307;BME280;21420;52.196;21.416;2023-07-28T00:31:02;99453.06;;;13.35;55.99
35307;BME280;21420;52.196;21.416;2023-07-28T00:33:29;99452.94;;;13.37;56.12
35307;BME280;21420;52.196;21.416;2023-07-28T00:35:56;99447.21;;;13.39;56.28
35307;BME280;21420;52.196;21.416;2023-07-28T00:38:22;99442.83;;;13.40;56.23
35307;BME280;21420;52.196;21.416;2023-07-28T00:40:49;99440.88;;;13.40;56.34
35307;BME280;21420;52.196;21.416;2023-07-28T00:43:16;99439.77;;;13.40;56.32
35307;BME280;21420;52.196;21.416;2023-07-28T00:45:43;99439.30;;;13.40;56.19
35307;BME280;21420;52.196;21.416;2023-07-28T00:48:12;99441.88;;;13.40;56.15
35307;BME280;21420;52.196;21.416;2023-07-28T00:50:41;99435.66;;;13.39;56.16
35307;BME280;21420;52.196;21.416;2023-07-28T00:53:08;99433.56;;;13.41;56.25
35307;BME280;21420;52.196;21.416;2023-07-28T00:55:35;99432.02;;;13.43;56.31
35307;BME280;21420;52.196;21.416;2023-07-28T00:58:02;99429.36;;;13.44;56.54
35307;BME280;21420;52.196;21.416;2023-07-28T01:00:28;99426.78;;;13.46;56.41
35307;BME280;21420;52.196;21.416;2023-07-28T01:02:56;99426.38;;;13.45;56.43
35307;BME280;21420;52.196;21.416;2023-07-28T01:05:28;99424.56;;;13.44;56.37
35307;BME280;21420;52.196;21.416;2023-07-28T01:08:14;99421.57;;;13.42;56.58
35307;BME280;21420;52.196;21.416;2023-07-28T01:10:43;99417.30;;;13.41;56.71
35307;BME280;21420;52.196;21.416;2023-07-28T01:13:10;99415.36;;;13.43;56.55
35307;BME280;21420;52.196;21.416;2023-07-28T01:15:36;99415.09;;;13.47;56.66
35307;BME280;21420;52.196;21.416;2023-07-28T01:18:03;99415.59;;;13.49;56.88
35307;BME280;21420;52.196;21.416;2023-07-28T01:20:31;99415.91;;;13.52;57.01
35307;BME280;21420;52.196;21.416;2023-07-28T01:23:09;99412.96;;;13.55;56.90
35307;BME280;21420;52.196;21.416;2023-07-28T01:28:15;99402.88;;;13.60;57.09
35307;BME280;21420;52.196;21.416;2023-07-28T01:30:43;99402.02;;;13.63;57.14
35307;BME280;21420;52.196;21.416;2023-07-28T01:33:10;99397.73;;;13.66;57.19
35307;BME280;21420;52.196;21.416;2023-07-28T01:35:37;99388.73;;;13.69;57.15
35307;BME280;21420;52.196;21.416;2023-07-28T01:38:05;99387.16;;;13.72;57.12
35307;BME280;21420;52.196;21.416;2023-07-28T01:40:32;99386.02;;;13.73;57.12
35307;BME280;21420;52.196;21.416;2023-07-28T01:42:59;99383.19;;;13.75;57.12
35307;BME280;21420;52.196;21.416;2023-07-28T01:45:25;99383.66;;;13.76;57.36
35307;BME280;21420;52.196;21.416;2023-07-28T01:47:52;99388.06;;;13.76;57.39
35307;BME280;21420;52.196;21.416;2023-07-28T01:50:18;99388.85;;;13.76;57.27
35307;BME280;21420;52.196;21.416;2023-07-28T01:52:45;99386.02;;;13.77;57.41
35307;BME280;21420;52.196;21.416;2023-07-28T01:55:12;99383.50;;;13.76;57.30
35307;BME280;21420;52.196;21.416;2023-07-28T01:57:39;99375.02;;;13.76;57.29
35307;BME280;21420;52.196;21.416;2023-07-28T02:00:07;99369.83;;;13.76;57.45
35307;BME280;21420;52.196;21.416;2023-07-28T02:02:39;99363.00;;;13.77;57.62
35307;BME280;21420;52.196;21.416;2023-07-28T02:05:06;99365.04;;;13.77;57.53
35307;BME280;21420;52.196;21.416;2023-07-28T02:07:33;99362.54;;;13.77;57.65
35307;BME280;21420;52.196;21.416;2023-07-28T02:10:00;99362.92;;;13.79;57.61
35307;BME280;21420;52.196;21.416;2023-07-28T02:12:26;99363.58;;;13.79;57.48
35307;BME280;21420;52.196;21.416;2023-07-28T02:14:53;99368.82;;;13.76;57.39
35307;BME280;21420;52.196;21.416;2023-07-28T02:17:25;99368.92;;;13.71;57.27
35307;BME280;21420;52.196;21.416;2023-07-28T02:19:52;99369.78;;;13.70;57.69
35307;BME280;21420;52.196;21.416;2023-07-28T02:22:18;99369.19;;;13.75;57.72
35307;BME280;21420;52.196;21.416;2023-07-28T02:24:45;99370.23;;;13.79;57.73
35307;BME280;21420;52.196;21.416;2023-07-28T02:27:11;99369.08;;;13.79;57.50
35307;BME280;21420;52.196;21.416;2023-07-28T02:29:38;99365.39;;;13.81;57.82
35307;BME280;21420;52.196;21.416;2023-07-28T02:32:05;99368.87;;;13.84;57.67
35307;BME280;21420;52.196;21.416;2023-07-28T02:34:32;99366.36;;;13.85;57.66
35307;BME280;21420;52.196;21.416;2023-07-28T02:36:59;99362.61;;;13.90;57.86
35307;BME280;21420;52.196;21.416;2023-07-28T02:39:26;99363.66;;;13.93;57.83
35307;BME280;21420;52.196;21.416;2023-07-28T02:41:52;99358.18;;;13.95;57.92
35307;BME280;21420;52.196;21.416;2023-07-28T02:44:19;99357.48;;;13.98;58.07
35307;BME280;21420;52.196;21.416;2023-07-28T02:46:45;99357.88;;;13.98;58.12
35307;BME280;21420;52.196;21.416;2023-07-28T02:49:12;99359.85;;;13.99;57.94
35307;BME280;21420;52.196;21.416;2023-07-28T02:51:39;99357.98;;;14.00;57.80
35307;BME280;21420;52.196;21.416;2023-07-28T02:54:06;99356.63;;;14.00;57.90
35307;BME280;21420;52.196;21.416;2023-07-28T02:56:32;99359.70;;;14.00;57.97
35307;BME280;21420;52.196;21.416;2023-07-28T02:59:05;99354.74;;;13.99;58.13
35307;BME280;21420;52.196;21.416;2023-07-28T03:01:32;99354.91;;;14.01;58.27
35307;BME280;21420;52.196;21.416;2023-07-28T03:04:03;99350.15;;;14.05;58.31
35307;BME280;21420;52.196;21.416;2023-07-28T03:06:38;99346.86;;;14.09;58.25
35307;BME280;21420;52.196;21.416;2023-07-28T03:09:05;99348.38;;;14.12;58.16
35307;BME280;21420;52.196;21.416;2023-07-28T03:11:43;99348.77;;;14.13;58.00
35307;BME280;21420;52.196;21.416;2023-07-28T03:14:10;99346.19;;;14.16;58.14
35307;BME280;21420;52.196;21.416;2023-07-28T03:16:40;99348.08;;;14.17;58.11
35307;BME280;21420;52.196;21.416;2023-07-28T03:19:07;99345.80;;;14.16;58.20
35307;BME280;21420;52.196;21.416;2023-07-28T03:21:34;99339.04;;;14.17;58.25
35307;BME280;21420;52.196;21.416;2023-07-28T03:24:05;99334.46;;;14.15;58.14
35307;BME280;21420;52.196;21.416;2023-07-28T03:26:34;99335.02;;;14.14;58.18
35307;BME280;21420;52.196;21.416;2023-07-28T03:29:03;99335.71;;;14.13;58.18
35307;BME280;21420;52.196;21.416;2023-07-28T03:31:30;99337.37;;;14.14;58.24
35307;BME280;21420;52.196;21.416;2023-07-28T03:33:57;99336.12;;;14.14;58.37
35307;BME280;21420;52.196;21.416;2023-07-28T03:36:24;99330.88;;;14.19;58.28
35307;BME280;21420;52.196;21.416;2023-07-28T03:38:51;99328.39;;;14.27;58.44
35307;BME280;21420;52.196;21.416;2023-07-28T03:41:18;99331.09;;;14.34;58.47
35307;BME280;21420;52.196;21.416;2023-07-28T03:43:45;99336.39;;;14.39;58.54
35307;BME280;21420;52.196;21.416;2023-07-28T03:46:12;99336.23;;;14.40;58.33
35307;BME280;21420;52.196;21.416;2023-07-28T03:48:38;99330.32;;;14.36;58.06
35307;BME280;21420;52.196;21.416;2023-07-28T03:51:05;99327.95;;;14.33;58.31
35307;BME280;21420;52.196;21.416;2023-07-28T03:53:32;99332.20;;;14.32;58.38
35307;BME280;21420;52.196;21.416;2023-07-28T03:56:02;99329.82;;;14.28;58.31
35307;BME280;21420;52.196;21.416;2023-07-28T03:58:29;99331.22;;;14.26;58.29
35307;BME280;21420;52.196;21.416;2023-07-28T04:00:56;99329.97;;;14.28;58.44
35307;BME280;21420;52.196;21.416;2023-07-28T04:03:23;99327.47;;;14.29;58.55
35307;BME280;21420;52.196;21.416;2023-07-28T04:05:50;99327.47;;;14.32;58.46
35307;BME280;21420;52.196;21.416;2023-07-28T04:08:16;99322.98;;;14.33;58.55
35307;BME280;21420;52.196;21.416;2023-07-28T04:10:43;99323.09;;;14.36;58.75
35307;BME280;21420;52.196;21.416;2023-07-28T04:13:10;99319.80;;;14.42;58.76
35307;BME280;21420;52.196;21.416;2023-07-28T04:15:37;99321.23;;;14.47;58.64
35307;BME280;21420;52.196;21.416;2023-07-28T04:18:03;99317.60;;;14.54;58.72
35307;BME280;21420;52.196;21.416;2023-07-28T04:20:30;99315.49;;;14.60;58.60
35307;BME280;21420;52.196;21.416;2023-07-28T04:22:57;99308.19;;;14.67;58.51
35307;BME280;21420;52.196;21.416;2023-07-28T04:25:24;99303.64;;;14.73;58.80
35307;BME280;21420;52.196;21.416;2023-07-28T04:27:50;99302.09;;;14.79;58.81
35307;BME280;21420;52.196;21.416;2023-07-28T04:30:17;99308.63;;;14.85;58.62
35307;BME280;21420;52.196;21.416;2023-07-28T04:32:44;99313.29;;;14.89;58.47
35307;BME280;21420;52.196;21.416;2023-07-28T04:35:15;99308.58;;;14.91;58.66
35307;BME280;21420;52.196;21.416;2023-07-28T04:38:01;99312.27;;;14.93;58.64
35307;BME280;21420;52.196;21.416;2023-07-28T04:40:38;99310.23;;;14.95;58.57
35307;BME280;21420;52.196;21.416;2023-07-28T04:43:05;99306.52;;;14.96;58.53
35307;BME280;21420;52.196;21.416;2023-07-28T04:45:31;99302.98;;;14.99;58.61
35307;BME280;21420;52.196;21.416;2023-07-28T04:47:59;99297.56;;;15.02;58.57
35307;BME280;21420;52.196;21.416;2023-07-28T04:50:26;99293.39;;;15.07;58.79
35307;BME280;21420;52.196;21.416;2023-07-28T04:53:16;99292.77;;;15.13;58.71
35307;BME280;21420;52.196;21.416;2023-07-28T04:56:08;99290.48;;;15.16;58.59
35307;BME280;21420;52.196;21.416;2023-07-28T04:58:35;99288.12;;;15.19;58.50
35307;BME280;21420;52.196;21.416;2023-07-28T05:01:02;99288.42;;;15.23;58.57
35307;BME280;21420;52.196;21.416;2023-07-28T05:03:29;99289.46;;;15.25;58.52
35307;BME280;21420;52.196;21.416;2023-07-28T05:05:59;99288.75;;;15.25;58.67
35307;BME280;21420;52.196;21.416;2023-07-28T05:08:26;99282.29;;;15.26;58.69
35307;BME280;21420;52.196;21.416;2023-07-28T05:10:53;99279.77;;;15.29;58.70
35307;BME280;21420;52.196;21.416;2023-07-28T05:13:20;99280.33;;;15.34;58.86
35307;BME280;21420;52.196;21.416;2023-07-28T05:15:53;99279.85;;;15.40;58.60
35307;BME280;21420;52.196;21.416;2023-07-28T05:18:39;99278.26;;;15.45;58.76
35307;BME280;21420;52.196;21.416;2023-07-28T05:21:41;99277.39;;;15.51;58.74
35307;BME280;21420;52.196;21.416;2023-07-28T05:24:09;99282.75;;;15.59;58.88
35307;BME280;21420;52.196;21.416;2023-07-28T05:26:36;99280.29;;;15.64;58.81
35307;BME280;21420;52.196;21.416;2023-07-28T05:29:03;99280.38;;;15.71;58.83
35307;BME280;21420;52.196;21.416;2023-07-28T05:31:29;99276.92;;;15.80;58.64
35307;BME280;21420;52.196;21.416;2023-07-28T05:33:56;99278.78;;;15.89;58.57
35307;BME280;21420;52.196;21.416;2023-07-28T05:36:23;99277.66;;;15.96;58.57
35307;BME280;21420;52.196;21.416;2023-07-28T05:38:51;99272.59;;;16.01;58.86
35307;BME280;21420;52.196;21.416;2023-07-28T05:41:20;99270.06;;;16.06;58.64
35307;BME280;21420;52.196;21.416;2023-07-28T05:43:47;99269.98;;;16.07;58.59
35307;BME280;21420;52.196;21.416;2023-07-28T05:46:17;99268.08;;;16.09;58.63
35307;BME280;21420;52.196;21.416;2023-07-28T05:48:46;99262.39;;;16.11;58.60
35307;BME280;21420;52.196;21.416;2023-07-28T05:51:13;99263.23;;;16.17;58.72
35307;BME280;21420;52.196;21.416;2023-07-28T05:53:39;99263.59;;;16.23;58.77
35307;BME280;21420;52.196;21.416;2023-07-28T05:56:07;99267.36;;;16.26;58.36
35307;BME280;21420;52.196;21.416;2023-07-28T05:58:33;99265.31;;;16.30;58.54
35307;BME280;21420;52.196;21.416;2023-07-28T06:01:00;99264.25;;;16.35;58.68
35307;BME280;21420;52.196;21.416;2023-07-28T06:03:47;99259.88;;;16.42;58.80
35307;BME280;21420;52.196;21.416;2023-07-28T06:06:19;99260.95;;;16.50;58.60
35307;BME280;21420;52.196;21.416;2023-07-28T06:08:45;99261.29;;;16.58;58.59
35307;BME280;21420;52.196;21.416;2023-07-28T06:11:12;99262.73;;;16.67;58.67
35307;BME280;21420;52.196;21.416;2023-07-28T06:13:39;99261.92;;;16.74;58.74
35307;BME280;21420;52.196;21.416;2023-07-28T06:16:06;99263.28;;;16.86;58.73
35307;BME280;21420;52.196;21.416;2023-07-28T06:18:33;99272.63;;;16.95;58.63
35307;BME280;21420;52.196;21.416;2023-07-28T06:21:07;99275.76;;;17.00;58.43
35307;BME280;21420;52.196;21.416;2023-07-28T06:23:33;99273.12;;;17.03;58.27
35307;BME280;21420;52.196;21.416;2023-07-28T06:26:01;99273.06;;;17.11;58.50
35307;BME280;21420;52.196;21.416;2023-07-28T06:28:27;99274.38;;;17.16;58.25
35307;BME280;21420;52.196;21.416;2023-07-28T06:30:55;99270.39;;;17.19;58.39
35307;BME280;21420;52.196;21.416;2023-07-28T06:33:24;99270.66;;;17.24;58.40
35307;BME280;21420;52.196;21.416;2023-07-28T06:35:51;99269.83;;;17.31;58.29
35307;BME280;21420;52.196;21.416;2023-07-28T06:38:18;99266.21;;;17.37;58.06
35307;BME280;21420;52.196;21.416;2023-07-28T06:40:45;99262.42;;;17.44;58.16
35307;BME280;21420;52.196;21.416;2023-07-28T06:43:12;99257.34;;;17.47;58.05
35307;BME280;21420;52.196;21.416;2023-07-28T06:45:39;99260.15;;;17.51;58.07
35307;BME280;21420;52.196;21.416;2023-07-28T06:48:06;99261.81;;;17.53;57.90
35307;BME280;21420;52.196;21.416;2023-07-28T06:50:34;99261.73;;;17.54;57.98
35307;BME280;21420;52.196;21.416;2023-07-28T06:53:01;99258.64;;;17.61;57.90
35307;BME280;21420;52.196;21.416;2023-07-28T06:55:28;99263.02;;;17.66;57.86
35307;BME280;21420;52.196;21.416;2023-07-28T06:57:54;99266.83;;;17.72;57.80
35307;BME280;21420;52.196;21.416;2023-07-28T07:00:21;99268.29;;;17.77;57.87
35307;BME280;21420;52.196;21.416;2023-07-28T07:02:48;99269.01;;;17.76;57.75
35307;BME280;21420;52.196;21.416;2023-07-28T07:05:15;99266.27;;;17.72;57.53
35307;BME280;21420;52.196;21.416;2023-07-28T07:07:42;99265.88;;;17.64;57.51
35307;BME280;21420;52.196;21.416;2023-07-28T07:10:09;99263.15;;;17.61;57.48
35307;BME280;21420;52.196;21.416;2023-07-28T07:12:36;99266.45;;;17.62;57.53
35307;BME280;21420;52.196;21.416;2023-07-28T07:15:04;99263.19;;;17.64;57.52
35307;BME280;21420;52.196;21.416;2023-07-28T07:17:31;99259.45;;;17.67;57.44
35307;BME280;21420;52.196;21.416;2023-07-28T07:19:58;99255.69;;;17.72;57.51
35307;BME280;21420;52.196;21.416;2023-07-28T07:22:25;99249.81;;;17.73;57.47
35307;BME280;21420;52.196;21.416;2023-07-28T07:24:52;99249.52;;;17.78;57.53
35307;BME280;21420;52.196;21.416;2023-07-28T07:27:18;99245.08;;;17.83;57.71
35307;BME280;21420;52.196;21.416;2023-07-28T07:29:45;99241.98;;;17.84;57.58
35307;BME280;21420;52.196;21.416;2023-07-28T07:32:12;99236.99;;;17.84;57.60
35307;BME280;21420;52.196;21.416;2023-07-28T07:34:38;99240.16;;;17.82;57.53
35307;BME280;21420;52.196;21.416;2023-07-28T07:37:05;99244.61;;;17.80;57.45
35307;BME280;21420;52.196;21.416;2023-07-28T07:39:32;99245.13;;;17.76;57.36
35307;BME280;21420;52.196;21.416;2023-07-28T07:42:00;99249.88;;;17.68;57.22
35307;BME280;21420;52.196;21.416;2023-07-28T07:44:27;99254.61;;;17.60;57.20
35307;BME280;21420;52.196;21.416;2023-07-28T07:46:55;99258.54;;;17.47;57.41
35307;BME280;21420;52.196;21.416;2023-07-28T07:49:22;99261.41;;;17.44;57.88
35307;BME280;21420;52.196;21.416;2023-07-28T07:51:50;99271.35;;;17.46;57.92
35307;BME280;21420;52.196;21.416;2023-07-28T07:54:16;99269.46;;;17.45;57.86
35307;BME280;21420;52.196;21.416;2023-07-28T07:56:45;99265.08;;;17.41;57.87
35307;BME280;21420;52.196;21.416;2023-07-28T07:59:13;99267.17;;;17.26;57.41
35307;BME280;21420;52.196;21.416;2023-07-28T08:01:40;99270.35;;;16.92;57.48
35307;BME280;21420;52.196;21.416;2023-07-28T08:04:08;99268.92;;;16.47;57.49
35307;BME280;21420;52.196;21.416;2023-07-28T08:06:34;99270.58;;;16.10;57.69
35307;BME280;21420;52.196;21.416;2023-07-28T08:09:01;99272.41;;;15.84;57.99
35307;BME280;21420;52.196;21.416;2023-07-28T08:11:28;99270.85;;;15.72;58.46
35307;BME280;21420;52.196;21.416;2023-07-28T08:13:55;99277.31;;;15.62;59.03
35307;BME280;21420;52.196;21.416;2023-07-28T08:16:22;99274.17;;;15.45;59.24
35307;BME280;21420;52.196;21.416;2023-07-28T08:18:48;99278.67;;;15.38;59.77
35307;BME280;21420;52.196;21.416;2023-07-28T08:21:16;99266.21;;;15.38;59.94
35307;BME280;21420;52.196;21.416;2023-07-28T08:23:42;99259.98;;;15.42;60.51
35307;BME280;21420;52.196;21.416;2023-07-28T08:26:09;99260.14;;;15.53;60.69
35307;BME280;21420;52.196;21.416;2023-07-28T08:28:36;99269.81;;;15.65;60.89
35307;BME280;21420;52.196;21.416;2023-07-28T08:31:02;99269.20;;;15.75;61.13
35307;BME280;21420;52.196;21.416;2023-07-28T08:33:31;99271.54;;;15.78;61.23
35307;BME280;21420;52.196;21.416;2023-07-28T08:35:57;99273.17;;;15.88;61.49
35307;BME280;21420;52.196;21.416;2023-07-28T08:38:28;99271.35;;;15.93;61.60
35307;BME280;21420;52.196;21.416;2023-07-28T08:40:56;99269.54;;;15.93;61.61
35307;BME280;21420;52.196;21.416;2023-07-28T08:43:25;99264.40;;;15.98;61.77
35307;BME280;21420;52.196;21.416;2023-07-28T08:45:53;99261.67;;;16.12;62.09
35307;BME280;21420;52.196;21.416;2023-07-28T08:48:21;99259.66;;;16.21;62.19
35307;BME280;21420;52.196;21.416;2023-07-28T08:50:48;99257.69;;;16.22;62.12
35307;BME280;21420;52.196;21.416;2023-07-28T08:53:16;99259.88;;;16.25;62.34
35307;BME280;21420;52.196;21.416;2023-07-28T08:55:43;99253.54;;;16.32;62.46
35307;BME280;21420;52.196;21.416;2023-07-28T08:58:22;99250.80;;;16.42;62.57
35307;BME280;21420;52.196;21.416;2023-07-28T09:00:52;99245.98;;;16.60;62.82
35307;BME280;21420;52.196;21.416;2023-07-28T09:03:20;99248.48;;;16.76;62.79
35307;BME280;21420;52.196;21.416;2023-07-28T09:05:48;99252.77;;;16.89;62.95
35307;BME280;21420;52.196;21.416;2023-07-28T09:08:15;99250.73;;;16.96;62.82
35307;BME280;21420;52.196;21.416;2023-07-28T09:13:12;99245.34;;;17.00;62.80
35307;BME280;21420;52.196;21.416;2023-07-28T09:15:44;99247.69;;;16.91;62.71
35307;BME280;21420;52.196;21.416;2023-07-28T09:18:16;99246.28;;;16.90;62.85
35307;BME280;21420;52.196;21.416;2023-07-28T09:20:43;99250.13;;;16.94;62.93
35307;BME280;21420;52.196;21.416;2023-07-28T09:23:13;99249.02;;;17.03;63.14
35307;BME280;21420;52.196;21.416;2023-07-28T09:25:41;99243.95;;;17.16;63.29
35307;BME280;21420;52.196;21.416;2023-07-28T09:28:08;99241.73;;;17.24;63.08
35307;BME280;21420;52.196;21.416;2023-07-28T09:30:49;99237.18;;;17.31;63.09
35307;BME280;21420;52.196;21.416;2023-07-28T09:33:34;99234.92;;;17.44;63.37
35307;BME280;21420;52.196;21.416;2023-07-28T09:36:08;99235.71;;;17.53;63.22
35307;BME280;21420;52.196;21.416;2023-07-28T09:38:39;99229.53;;;17.62;63.36
35307;BME280;21420;52.196;21.416;2023-07-28T09:41:09;99230.04;;;17.74;63.30
35307;BME280;21420;52.196;21.416;2023-07-28T09:43:38;99227.71;;;17.85;63.29
35307;BME280;21420;52.196;21.416;2023-07-28T09:46:07;99226.95;;;17.98;63.28
35307;BME280;21420;52.196;21.416;2023-07-28T09:48:34;99230.66;;;17.98;62.90
35307;BME280;21420;52.196;21.416;2023-07-28T09:51:08;99233.97;;;17.99;63.00
35307;BME280;21420;52.196;21.416;2023-07-28T09:53:43;99230.11;;;18.04;63.05
35307;BME280;21420;52.196;21.416;2023-07-28T09:56:14;99224.44;;;18.15;63.24
35307;BME280;21420;52.196;21.416;2023-07-28T09:58:51;99226.11;;;18.26;63.29
35307;BME280;21420;52.196;21.416;2023-07-28T10:01:19;99227.45;;;18.27;62.96
35307;BME280;21420;52.196;21.416;2023-07-28T10:03:49;99228.68;;;18.24;62.98
35307;BME280;21420;52.196;21.416;2023-07-28T10:06:17;99230.77;;;18.21;62.98
35307;BME280;21420;52.196;21.416;2023-07-28T10:08:45;99228.97;;;18.20;62.93
35307;BME280;21420;52.196;21.416;2023-07-28T10:11:12;99224.35;;;18.22;62.74
35307;BME280;21420;52.196;21.416;2023-07-28T10:13:41;99218.38;;;18.25;62.87
35307;BME280;21420;52.196;21.416;2023-07-28T10:16:09;99217.00;;;18.33;62.88
35307;BME280;21420;52.196;21.416;2023-07-28T10:18:37;99217.30;;;18.47;63.09
35307;BME280;21420;52.196;21.416;2023-07-28T10:21:06;99213.50;;;18.57;62.89
35307;BME280;21420;52.196;21.416;2023-07-28T10:23:34;99207.89;;;18.51;62.48
35307;BME280;21420;52.196;21.416;2023-07-28T10:26:05;99212.59;;;18.43;62.52
35307;BME280;21420;52.196;21.416;2023-07-28T10:28:37;99211.16;;;18.49;62.96
35307;BME280;21420;52.196;21.416;2023-07-28T10:31:11;99209.79;;;18.57;63.02
35307;BME280;21420;52.196;21.416;2023-07-28T10:33:39;99207.25;;;18.62;62.90
35307;BME280;21420;52.196;21.416;2023-07-28T10:36:17;99203.73;;;18.65;62.87
35307;BME280;21420;52.196;21.416;2023-07-28T10:38:44;99205.27;;;18.62;62.83
35307;BME280;21420;52.196;21.416;2023-07-28T10:41:16;99206.08;;;18.67;62.89
35307;BME280;21420;52.196;21.416;2023-07-28T10:43:45;99201.80;;;18.67;62.51
35307;BME280;21420;52.196;21.416;2023-07-28T10:46:16;99204.83;;;18.65;62.61
35307;BME280;21420;52.196;21.416;2023-07-28T10:48:45;99199.65;;;18.62;62.61
35307;BME280;21420;52.196;21.416;2023-07-28T10:51:23;99193.14;;;18.63;62.67
35307;BME280;21420;52.196;21.416;2023-07-28T10:53:55;99188.16;;;18.68;62.80
35307;BME280;21420;52.196;21.416;2023-07-28T10:56:22;99183.42;;;18.83;62.69
35307;BME280;21420;52.196;21.416;2023-07-28T10:59:00;99188.37;;;18.92;62.81
35307;BME280;21420;52.196;21.416;2023-07-28T11:01:34;99187.33;;;19.02;62.85
35307;BME280;21420;52.196;21.416;2023-07-28T11:04:12;99184.08;;;19.16;62.86
35307;BME280;21420;52.196;21.416;2023-07-28T11:06:44;99183.69;;;19.30;62.80
35307;BME280;21420;52.196;21.416;2023-07-28T11:09:13;99186.80;;;19.32;62.80
35307;BME280;21420;52.196;21.416;2023-07-28T11:11:42;99186.21;;;19.30;62.58
35307;BME280;21420;52.196;21.416;2023-07-28T11:14:15;99188.22;;;19.24;62.48
35307;BME280;21420;52.196;21.416;2023-07-28T11:16:45;99185.46;;;19.19;62.42
35307;BME280;21420;52.196;21.416;2023-07-28T11:19:15;99189.58;;;19.14;62.42
35307;BME280;21420;52.196;21.416;2023-07-28T11:21:54;99183.88;;;19.14;62.48
35307;BME280;21420;52.196;21.416;2023-07-28T11:24:21;99181.25;;;19.19;62.51
35307;BME280;21420;52.196;21.416;2023-07-28T11:26:50;99176.59;;;19.27;62.67
35307;BME280;21420;52.196;21.416;2023-07-28T11:29:20;99176.45;;;19.43;62.83
35307;BME280;21420;52.196;21.416;2023-07-28T11:31:48;99186.09;;;19.59;62.74
35307;BME280;21420;52.196;21.416;2023-07-28T11:34:16;99186.23;;;19.73;62.63
35307;BME280;21420;52.196;21.416;2023-07-28T11:36:43;99189.04;;;19.87;62.49
35307;BME280;21420;52.196;21.416;2023-07-28T11:39:10;99182.95;;;19.91;62.41
35307;BME280;21420;52.196;21.416;2023-07-28T11:41:38;99183.18;;;19.78;62.13
35307;BME280;21420;52.196;21.416;2023-07-28T11:44:07;99184.10;;;19.67;62.09
35307;BME280;21420;52.196;21.416;2023-07-28T11:46:38;99182.54;;;19.65;62.22
35307;BME280;21420;52.196;21.416;2023-07-28T11:49:16;99176.69;;;19.69;62.46
35307;BME280;21420;52.196;21.416;2023-07-28T11:51:47;99175.91;;;19.80;62.35
35307;BME280;21420;52.196;21.416;2023-07-28T11:54:21;99180.11;;;19.89;62.32
35307;BME280;21420;52.196;21.416;2023-07-28T11:56:49;99179.27;;;19.91;62.24
35307;BME280;21420;52.196;21.416;2023-07-28T11:59:18;99170.30;;;20.10;62.58
35307;BME280;21420;52.196;21.416;2023-07-28T12:04:29;99160.70;;;20.75;62.61
35307;BME280;21420;52.196;21.416;2023-07-28T12:12:42;99160.70;;;21.78;62.26
35307;BME280;21420;52.196;21.416;2023-07-28T12:15:28;99153.39;;;22.35;62.68
35307;BME280;21420;52.196;21.416;2023-07-28T12:18:12;99150.67;;;22.88;62.40
35307;BME280;21420;52.196;21.416;2023-07-28T12:20:47;99152.23;;;23.37;62.18
35307;BME280;21420;52.196;21.416;2023-07-28T12:23:21;99153.03;;;23.77;61.75
35307;BME280;21420;52.196;21.416;2023-07-28T12:25:51;99151.11;;;23.93;60.90
35307;BME280;21420;52.196;21.416;2023-07-28T12:28:20;99158.17;;;23.76;60.09
35307;BME280;21420;52.196;21.416;2023-07-28T12:30:47;99157.93;;;23.51;59.68
35307;BME280;21420;52.196;21.416;2023-07-28T12:33:19;99156.25;;;23.17;59.28
35307;BME280;21420;52.196;21.416;2023-07-28T12:35:48;99158.14;;;23.20;59.98
35307;BME280;21420;52.196;21.416;2023-07-28T12:38:17;99154.98;;;23.65;60.36
35307;BME280;21420;52.196;21.416;2023-07-28T12:40:46;99155.73;;;23.95;59.92
35307;BME280;21420;52.196;21.416;2023-07-28T12:43:16;99163.78;;;24.02;59.68
35307;BME280;21420;52.196;21.416;2023-07-28T12:45:46;99167.69;;;23.96;59.14
35307;BME280;21420;52.196;21.416;2023-07-28T12:48:16;99155.08;;;23.93;59.20
35307;BME280;21420;52.196;21.416;2023-07-28T12:50:45;99156.98;;;24.04;59.19
35307;BME280;21420;52.196;21.416;2023-07-28T12:53:14;99157.23;;;24.02;58.88
35307;BME280;21420;52.196;21.416;2023-07-28T12:55:44;99160.13;;;23.86;58.52
35307;BME280;21420;52.196;21.416;2023-07-28T12:58:14;99163.59;;;23.61;58.39
35307;BME280;21420;52.196;21.416;2023-07-28T13:00:44;99166.05;;;23.34;58.14
35307;BME280;21420;52.196;21.416;2023-07-28T13:03:13;99166.30;;;23.31;58.86
35307;BME280;21420;52.196;21.416;2023-07-28T13:05:40;99163.45;;;23.53;59.14
35307;BME280;21420;52.196;21.416;2023-07-28T13:08:10;99162.88;;;23.74;59.16
35307;BME280;21420;52.196;21.416;2023-07-28T13:10:37;99162.24;;;24.07;59.30
35307;BME280;21420;52.196;21.416;2023-07-28T13:13:07;99165.05;;;24.33;59.10